createdAt,value
2018-11-29T00:00:25.421Z,44.95
2018-11-29T00:01:29.022Z,42.13
2018-11-29T00:02:32.654Z,44.75
2018-11-29T00:03:36.214Z,44.73
2018-11-29T00:04:39.799Z,45.08
2018-11-29T00:05:43.388Z,47.15
2018-11-29T00:06:47.029Z,42.48
2018-11-29T00:07:50.709Z,48.63
2018-11-29T00:08:54.305Z,47.53
2018-11-29T00:09:57.876Z,47.88
2018-11-29T00:11:01.496Z,44.90
2018-11-29T00:12:05.789Z,43.52
2018-11-29T00:13:09.354Z,47.80
2018-11-29T00:14:12.941Z,49.77
2018-11-29T00:15:16.693Z,47.45
2018-11-29T00:16:20.285Z,48.75
2018-11-29T00:17:23.877Z,53.00
2018-11-29T00:18:27.456Z,50.88
2018-11-29T00:19:31.088Z,52.40
2018-11-29T00:20:34.673Z,55.70
2018-11-29T00:21:38.264Z,59.58
2018-11-29T00:22:42.294Z,49.90
2018-11-29T00:23:45.997Z,53.25
2018-11-29T00:24:49.587Z,57.17
2018-11-29T00:25:53.148Z,57.17
2018-11-29T00:26:56.728Z,61.23
2018-11-29T00:28:00.295Z,56.65
2018-11-29T00:29:03.874Z,61.95
2018-11-29T00:30:11.441Z,58.90
2018-11-29T00:31:15.012Z,65.83
2018-11-29T00:32:18.606Z,58.68
2018-11-29T00:33:22.182Z,56.18
2018-11-29T00:34:25.791Z,59.13
2018-11-29T00:35:29.381Z,62.30
2018-11-29T00:36:32.961Z,62.25
2018-11-29T00:37:36.609Z,61.73
2018-11-29T00:38:40.222Z,53.65
2018-11-29T00:39:43.789Z,57.70
2018-11-29T00:40:47.361Z,53.83
2018-11-29T00:41:50.953Z,60.38
2018-11-29T00:42:54.527Z,55.60
2018-11-29T00:43:58.096Z,59.93
2018-11-29T00:45:01.697Z,54.10
2018-11-29T00:46:05.431Z,55.50
2018-11-29T00:47:09.009Z,62.00
2018-11-29T00:48:12.581Z,56.02
2018-11-29T00:49:16.183Z,55.38
2018-11-29T00:50:20.351Z,54.65
2018-11-29T00:51:23.969Z,55.33
2018-11-29T00:52:27.512Z,53.25
2018-11-29T00:53:31.113Z,56.70
2018-11-29T00:54:34.717Z,55.15
2018-11-29T00:55:38.315Z,59.05
2018-11-29T00:56:41.870Z,53.05
2018-11-29T00:57:45.472Z,52.78
2018-11-29T00:58:49.074Z,58.50
2018-11-29T00:59:52.780Z,58.73
2018-11-29T01:00:56.325Z,53.25
2018-11-29T01:01:59.921Z,53.50
2018-11-29T01:03:03.491Z,53.98
2018-11-29T01:04:07.066Z,54.53
2018-11-29T01:05:10.833Z,57.80
2018-11-29T01:06:14.373Z,56.30
2018-11-29T01:07:17.981Z,55.10
2018-11-29T01:08:21.549Z,57.53
2018-11-29T01:09:25.127Z,52.73
2018-11-29T01:10:28.739Z,55.67
2018-11-29T01:11:32.305Z,54.55
2018-11-29T01:12:36.001Z,57.30
2018-11-29T01:13:39.577Z,54.60
2018-11-29T01:14:43.149Z,56.18
2018-11-29T01:15:46.741Z,54.42
2018-11-29T01:16:50.326Z,54.33
2018-11-29T01:17:53.908Z,54.80
2018-11-29T01:18:57.513Z,52.13
2018-11-29T01:20:01.103Z,56.90
2018-11-29T01:21:04.712Z,54.33
2018-11-29T01:22:08.296Z,55.98
2018-11-29T01:23:11.866Z,57.75
2018-11-29T01:24:15.441Z,49.33
2018-11-29T01:25:19.021Z,54.03
2018-11-29T01:26:22.599Z,54.90
2018-11-29T01:27:26.169Z,53.90
2018-11-29T01:28:29.822Z,50.58
2018-11-29T01:29:33.357Z,51.75
2018-11-29T01:30:36.986Z,51.85
2018-11-29T01:31:40.553Z,55.05
2018-11-29T01:32:44.214Z,61.02
2018-11-29T01:33:47.810Z,53.87
2018-11-29T01:34:51.417Z,51.63
2018-11-29T01:35:54.986Z,59.95
2018-11-29T01:36:58.561Z,52.98
2018-11-29T01:38:02.237Z,51.42
2018-11-29T01:39:08.572Z,45.38
2018-11-29T01:40:15.938Z,47.83
2018-11-29T01:41:19.521Z,51.20
2018-11-29T01:42:23.115Z,53.02
2018-11-29T01:43:26.743Z,54.80
2018-11-29T01:44:30.298Z,54.27
2018-11-29T01:45:33.865Z,52.88
2018-11-29T01:46:37.443Z,52.67
2018-11-29T01:47:41.045Z,49.20
2018-11-29T01:48:44.630Z,57.10
2018-11-29T01:49:48.233Z,56.73
2018-11-29T01:50:51.876Z,49.20
2018-11-29T01:51:55.429Z,56.70
2018-11-29T01:52:59.028Z,55.92
2018-11-29T01:54:02.641Z,51.40
2018-11-29T01:55:07.765Z,52.43
2018-11-29T01:56:11.345Z,51.80
2018-11-29T01:57:15.056Z,50.05
2018-11-29T01:58:18.646Z,55.23
2018-11-29T01:59:22.189Z,54.42
2018-11-29T02:00:25.793Z,54.63
2018-11-29T02:01:29.365Z,53.70
2018-11-29T02:02:32.973Z,53.80
2018-11-29T02:03:36.573Z,52.60
2018-11-29T02:04:40.190Z,54.10
2018-11-29T02:05:43.754Z,51.70
2018-11-29T02:06:47.336Z,52.88
2018-11-29T02:07:50.946Z,51.33
2018-11-29T02:08:54.549Z,52.80
2018-11-29T02:10:03.505Z,54.67
2018-11-29T02:11:07.259Z,48.23
2018-11-29T02:12:10.850Z,50.65
2018-11-29T02:13:14.408Z,49.75
2018-11-29T02:14:17.993Z,49.83
2018-11-29T02:15:21.574Z,51.28
2018-11-29T02:16:25.158Z,56.37
2018-11-29T02:17:28.745Z,48.38
2018-11-29T02:18:32.392Z,51.28
2018-11-29T02:19:35.932Z,55.00
2018-11-29T02:20:39.525Z,49.03
2018-11-29T02:21:43.105Z,53.83
2018-11-29T02:22:47.073Z,49.80
2018-11-29T02:23:50.673Z,55.63
2018-11-29T02:24:54.249Z,48.38
2018-11-29T02:25:57.829Z,53.80
2018-11-29T02:27:01.423Z,48.85
2018-11-29T02:28:05.221Z,50.60
2018-11-29T02:29:08.770Z,49.13
2018-11-29T02:30:16.829Z,55.08
2018-11-29T02:31:20.415Z,52.70
2018-11-29T02:32:23.999Z,52.30
2018-11-29T02:33:27.589Z,48.15
2018-11-29T02:34:31.168Z,51.85
2018-11-29T02:35:34.985Z,48.02
2018-11-29T02:36:38.562Z,51.83
2018-11-29T02:37:42.165Z,50.40
2018-11-29T02:38:45.832Z,50.52
2018-11-29T02:39:49.422Z,50.67
2018-11-29T02:40:52.978Z,50.88
2018-11-29T02:41:56.553Z,48.98
2018-11-29T02:43:00.136Z,50.73
2018-11-29T02:44:03.733Z,48.85
2018-11-29T02:45:11.661Z,47.85
2018-11-29T02:46:15.237Z,57.73
2018-11-29T02:47:18.829Z,52.40
2018-11-29T02:48:22.441Z,51.58
2018-11-29T02:49:26.023Z,52.60
2018-11-29T02:50:29.627Z,51.75
2018-11-29T02:51:33.194Z,50.38
2018-11-29T02:52:36.795Z,50.92
2018-11-29T02:53:40.396Z,48.42
2018-11-29T02:54:43.970Z,49.10
2018-11-29T02:55:47.554Z,52.53
2018-11-29T02:56:51.129Z,51.65
2018-11-29T02:57:54.723Z,47.25
2018-11-29T02:58:58.348Z,46.90
2018-11-29T03:00:01.909Z,46.77
2018-11-29T03:01:05.655Z,50.50
2018-11-29T03:02:09.246Z,53.38
2018-11-29T03:03:12.830Z,51.15
2018-11-29T03:04:16.432Z,52.93
2018-11-29T03:05:20.096Z,50.88
2018-11-29T03:06:23.645Z,50.78
2018-11-29T03:07:27.278Z,46.53
2018-11-29T03:08:30.845Z,49.53
2018-11-29T03:09:34.425Z,48.20
2018-11-29T03:10:38.014Z,51.65
2018-11-29T03:11:41.597Z,51.02
2018-11-29T03:12:45.178Z,48.75
2018-11-29T03:13:48.769Z,50.30
2018-11-29T03:14:52.353Z,52.58
2018-11-29T03:15:56.000Z,51.63
2018-11-29T03:16:59.588Z,48.23
2018-11-29T03:18:03.156Z,49.88
2018-11-29T03:19:06.769Z,50.95
2018-11-29T03:20:12.305Z,49.55
2018-11-29T03:21:15.902Z,50.50
2018-11-29T03:22:19.519Z,56.33
2018-11-29T03:23:23.100Z,53.75
2018-11-29T03:24:26.771Z,50.67
2018-11-29T03:25:30.359Z,51.25
2018-11-29T03:26:33.930Z,53.50
2018-11-29T03:27:37.505Z,49.95
2018-11-29T03:28:41.097Z,51.63
2018-11-29T03:29:44.685Z,53.42
2018-11-29T03:30:48.262Z,50.58
2018-11-29T03:31:52.115Z,53.52
2018-11-29T03:32:55.706Z,51.10
2018-11-29T03:33:59.305Z,48.60
2018-11-29T03:35:02.894Z,50.55
2018-11-29T03:36:06.481Z,51.13
2018-11-29T03:37:10.065Z,52.10
2018-11-29T03:38:13.652Z,52.33
2018-11-29T03:39:17.241Z,49.48
2018-11-29T03:40:20.838Z,49.73
2018-11-29T03:41:24.421Z,47.38
2018-11-29T03:42:28.010Z,49.85
2018-11-29T03:43:31.585Z,48.83
2018-11-29T03:44:35.178Z,47.48
2018-11-29T03:45:38.773Z,51.75
2018-11-29T03:46:42.369Z,50.73
2018-11-29T03:47:46.078Z,51.35
2018-11-29T03:48:49.689Z,53.25
2018-11-29T03:49:53.281Z,47.95
2018-11-29T03:50:56.940Z,47.62
2018-11-29T03:52:00.504Z,47.20
2018-11-29T03:53:04.089Z,47.45
2018-11-29T03:54:07.697Z,48.75
2018-11-29T03:55:11.445Z,49.53
2018-11-29T03:56:15.017Z,51.40
2018-11-29T03:57:18.613Z,47.13
2018-11-29T03:58:22.280Z,47.03
2018-11-29T03:59:25.968Z,51.45
2018-11-29T04:00:29.525Z,49.67
2018-11-29T04:01:33.113Z,45.95
2018-11-29T04:02:36.711Z,50.80
2018-11-29T04:03:40.298Z,50.80
2018-11-29T04:04:43.894Z,48.48
2018-11-29T04:05:47.485Z,47.78
2018-11-29T04:06:51.069Z,51.98
2018-11-29T04:07:54.690Z,48.38
2018-11-29T04:08:58.253Z,47.62
2018-11-29T04:10:01.851Z,48.75
2018-11-29T04:11:05.590Z,49.60
2018-11-29T04:12:09.169Z,51.20
2018-11-29T04:13:12.757Z,50.85
2018-11-29T04:14:16.369Z,50.52
2018-11-29T04:15:20.029Z,50.92
2018-11-29T04:16:23.600Z,51.75
2018-11-29T04:17:27.201Z,53.70
2018-11-29T04:18:30.793Z,55.52
2018-11-29T04:19:34.393Z,60.50
2018-11-29T04:20:37.981Z,55.80
2018-11-29T04:21:41.568Z,60.67
2018-11-29T04:22:45.173Z,59.73
2018-11-29T04:23:48.765Z,62.20
2018-11-29T04:24:52.443Z,65.70
2018-11-29T04:25:56.033Z,64.82
2018-11-29T04:26:59.585Z,62.20
2018-11-29T04:28:03.189Z,66.67
2018-11-29T04:29:06.763Z,73.57
2018-11-29T04:30:12.461Z,73.35
2018-11-29T04:31:16.046Z,82.35
2018-11-29T04:32:19.634Z,80.28
2018-11-29T04:33:23.226Z,70.95
2018-11-29T04:34:26.815Z,77.15
2018-11-29T04:35:30.405Z,86.37
2018-11-29T04:36:34.006Z,77.40
2018-11-29T04:37:37.767Z,81.32
2018-11-29T04:38:41.347Z,91.55
2018-11-29T04:39:44.925Z,92.78
2018-11-29T04:40:48.513Z,99.25
2018-11-29T04:41:52.097Z,85.42
2018-11-29T04:42:55.689Z,88.40
2018-11-29T04:43:59.321Z,84.58
2018-11-29T04:45:03.118Z,82.85
2018-11-29T04:47:15.586Z,85.55
2018-11-29T04:48:19.165Z,86.32
2018-11-29T04:49:22.758Z,73.20
2018-11-29T04:50:26.358Z,83.52
2018-11-29T04:51:29.978Z,84.45
2018-11-29T04:52:33.861Z,87.65
2018-11-29T04:53:37.447Z,84.97
2018-11-29T04:54:41.026Z,95.95
2018-11-29T04:55:44.654Z,95.50
2018-11-29T04:56:48.221Z,91.80
2018-11-29T04:57:51.801Z,93.17
2018-11-29T04:58:55.397Z,90.07
2018-11-29T04:59:58.993Z,85.87
2018-11-29T05:01:02.707Z,83.22
2018-11-29T05:02:06.643Z,90.15
2018-11-29T05:03:10.228Z,82.55
2018-11-29T05:04:13.813Z,83.97
2018-11-29T05:05:17.469Z,83.50
2018-11-29T05:06:21.070Z,82.12
2018-11-29T05:07:24.623Z,82.67
2018-11-29T05:08:28.201Z,85.85
2018-11-29T05:09:31.781Z,87.57
2018-11-29T05:10:35.366Z,91.20
2018-11-29T05:11:39.007Z,90.15
2018-11-29T05:12:42.601Z,87.37
2018-11-29T05:13:46.303Z,84.45
2018-11-29T05:14:49.892Z,101.42
2018-11-29T05:15:53.446Z,96.65
2018-11-29T05:16:57.033Z,95.35
2018-11-29T05:18:00.613Z,89.62
2018-11-29T05:19:04.222Z,94.10
2018-11-29T05:20:08.245Z,97.95
2018-11-29T05:21:11.849Z,95.25
2018-11-29T05:22:15.447Z,94.83
2018-11-29T05:23:19.029Z,91.28
2018-11-29T05:24:22.657Z,96.42
2018-11-29T05:25:26.310Z,92.25
2018-11-29T05:26:29.862Z,93.20
2018-11-29T05:27:33.453Z,104.07
2018-11-29T05:28:37.045Z,105.87
2018-11-29T05:29:40.625Z,105.37
2018-11-29T05:30:44.204Z,114.22
2018-11-29T05:31:47.820Z,104.15
2018-11-29T05:32:51.422Z,105.92
2018-11-29T05:33:55.042Z,107.80
2018-11-29T05:34:58.597Z,104.32
2018-11-29T05:36:02.178Z,97.47
2018-11-29T05:37:06.522Z,99.35
2018-11-29T05:38:10.082Z,107.03
2018-11-29T05:39:13.705Z,101.40
2018-11-29T05:40:17.302Z,111.47
2018-11-29T05:41:20.921Z,100.27
2018-11-29T05:42:24.513Z,114.08
2018-11-29T05:43:28.105Z,111.85
2018-11-29T05:44:31.693Z,118.00
2018-11-29T05:45:35.309Z,127.15
2018-11-29T05:46:38.893Z,123.45
2018-11-29T05:47:42.501Z,119.40
2018-11-29T05:48:46.080Z,107.75
2018-11-29T05:49:49.673Z,123.30
2018-11-29T05:50:53.293Z,125.85
2018-11-29T05:51:56.906Z,122.13
2018-11-29T05:53:00.493Z,116.42
2018-11-29T05:54:04.365Z,112.25
2018-11-29T05:55:09.694Z,122.75
2018-11-29T05:56:13.289Z,116.65
2018-11-29T05:57:16.892Z,128.00
2018-11-29T05:58:20.485Z,122.15
2018-11-29T05:59:24.073Z,135.68
2018-11-29T06:00:27.665Z,127.47
2018-11-29T06:01:34.682Z,129.35
2018-11-29T06:02:38.309Z,125.85
2018-11-29T06:03:41.907Z,136.68
2018-11-29T06:04:45.498Z,126.10
2018-11-29T06:05:49.101Z,126.87
2018-11-29T06:06:52.717Z,119.13
2018-11-29T06:07:56.309Z,120.45
2018-11-29T06:08:59.913Z,128.78
2018-11-29T06:10:03.502Z,123.87
2018-11-29T06:11:07.118Z,137.85
2018-11-29T06:12:10.829Z,131.35
2018-11-29T06:13:14.425Z,128.25
2018-11-29T06:14:18.025Z,125.22
2018-11-29T06:15:21.609Z,128.75
2018-11-29T06:16:25.205Z,131.10
2018-11-29T06:17:28.792Z,124.22
2018-11-29T06:18:32.397Z,124.97
2018-11-29T06:19:36.002Z,116.28
2018-11-29T06:20:39.597Z,112.50
2018-11-29T06:21:43.255Z,133.67
2018-11-29T06:22:46.942Z,129.05
2018-11-29T06:23:50.546Z,125.25
2018-11-29T06:24:54.128Z,125.12
2018-11-29T06:25:57.712Z,115.88
2018-11-29T06:27:01.318Z,141.90
2018-11-29T06:28:04.926Z,135.75
2018-11-29T06:29:08.517Z,126.62
2018-11-29T06:30:19.257Z,132.00
2018-11-29T06:31:22.848Z,138.15
2018-11-29T06:32:26.430Z,135.03
2018-11-29T06:33:30.022Z,148.00
2018-11-29T06:34:33.606Z,153.70
2018-11-29T06:35:37.188Z,170.12
2018-11-29T06:36:40.778Z,171.82
2018-11-29T06:37:44.481Z,196.87
2018-11-29T06:38:48.071Z,219.32
2018-11-29T06:39:51.658Z,185.20
2018-11-29T06:40:55.242Z,196.80
2018-11-29T06:41:58.821Z,214.17
2018-11-29T06:43:02.453Z,216.82
2018-11-29T06:44:06.047Z,194.15
2018-11-29T06:45:11.952Z,174.53
2018-11-29T06:46:15.533Z,203.83
2018-11-29T06:47:19.133Z,218.67
2018-11-29T06:48:22.729Z,203.67
2018-11-29T06:49:26.325Z,186.88
2018-11-29T06:50:30.008Z,175.97
2018-11-29T06:51:33.597Z,198.72
2018-11-29T06:52:37.177Z,168.13
2018-11-29T06:53:46.030Z,194.00
2018-11-29T06:54:49.629Z,201.05
2018-11-29T06:55:53.221Z,196.75
2018-11-29T06:56:56.802Z,177.25
2018-11-29T06:58:00.397Z,209.55
2018-11-29T06:59:04.021Z,195.92
2018-11-29T07:00:11.436Z,184.37
2018-11-29T07:01:15.061Z,180.85
2018-11-29T07:02:18.657Z,179.40
2018-11-29T07:03:22.240Z,171.32
2018-11-29T07:04:25.860Z,163.43
2018-11-29T07:05:29.449Z,197.70
2018-11-29T07:06:33.095Z,186.88
2018-11-29T07:07:36.653Z,167.05
2018-11-29T07:08:40.238Z,203.25
2018-11-29T07:09:43.892Z,172.43
2018-11-29T07:10:47.489Z,166.37
2018-11-29T07:11:51.079Z,174.82
2018-11-29T07:12:54.665Z,183.60
2018-11-29T07:13:58.257Z,190.25
2018-11-29T07:15:01.856Z,168.00
2018-11-29T07:16:05.819Z,187.68
2018-11-29T07:17:09.512Z,161.10
2018-11-29T07:18:13.065Z,177.75
2018-11-29T07:19:16.669Z,160.22
2018-11-29T07:20:20.265Z,176.75
2018-11-29T07:21:35.341Z,159.43
2018-11-29T07:22:38.942Z,161.97
2018-11-29T07:23:42.529Z,162.10
2018-11-29T07:24:46.135Z,147.53
2018-11-29T07:25:49.753Z,162.18
2018-11-29T07:26:53.408Z,134.55
2018-11-29T07:27:56.984Z,183.65
2018-11-29T07:29:00.545Z,187.82
2018-11-29T07:30:06.305Z,166.40
2018-11-29T07:31:09.897Z,193.10
2018-11-29T07:32:14.947Z,150.35
2018-11-29T07:33:18.541Z,169.22
2018-11-29T07:34:22.131Z,152.65
2018-11-29T07:35:25.803Z,142.50
2018-11-29T07:36:29.369Z,149.97
2018-11-29T07:37:32.956Z,145.75
2018-11-29T07:38:36.549Z,142.25
2018-11-29T07:39:40.145Z,133.95
2018-11-29T07:40:43.732Z,155.72
2018-11-29T07:41:47.342Z,157.18
2018-11-29T07:42:52.349Z,162.35
2018-11-29T07:43:55.937Z,150.65
2018-11-29T07:44:59.531Z,124.05
2018-11-29T07:46:03.118Z,127.53
2018-11-29T07:47:06.709Z,138.65
2018-11-29T07:48:10.305Z,128.02
2018-11-29T07:49:13.893Z,128.12
2018-11-29T07:50:19.540Z,114.97
2018-11-29T07:51:23.242Z,125.65
2018-11-29T07:52:26.831Z,130.37
2018-11-29T07:53:30.390Z,122.53
2018-11-29T07:54:33.976Z,117.65
2018-11-29T07:55:37.573Z,113.80
2018-11-29T07:56:41.157Z,125.15
2018-11-29T07:57:45.287Z,116.67
2018-11-29T07:58:51.582Z,131.85
2018-11-29T07:59:52.560Z,142.00
2018-11-29T08:00:56.149Z,127.07
2018-11-29T08:01:59.749Z,117.77
2018-11-29T08:03:03.348Z,138.75
2018-11-29T08:04:06.941Z,122.28
2018-11-29T08:05:12.454Z,124.82
2018-11-29T08:06:16.062Z,117.00
2018-11-29T08:07:19.654Z,137.95
2018-11-29T08:08:23.237Z,126.07
2018-11-29T08:09:26.830Z,132.95
2018-11-29T08:10:31.011Z,122.70
2018-11-29T08:11:34.046Z,123.87
2018-11-29T08:12:37.812Z,133.67
2018-11-29T08:13:41.608Z,129.65
2018-11-29T08:14:45.199Z,147.85
2018-11-29T08:15:48.765Z,145.15
2018-11-29T08:16:52.357Z,163.43
2018-11-29T08:17:55.950Z,137.75
2018-11-29T08:18:59.561Z,118.97
2018-11-29T08:20:03.445Z,131.72
2018-11-29T08:21:07.049Z,133.10
2018-11-29T08:22:10.633Z,159.00
2018-11-29T08:23:14.331Z,143.52
2018-11-29T08:24:17.889Z,137.92
2018-11-29T08:25:21.512Z,140.25
2018-11-29T08:26:25.085Z,140.82
2018-11-29T08:27:28.673Z,154.07
2018-11-29T08:28:32.277Z,152.12
2018-11-29T08:29:35.869Z,139.75
2018-11-29T08:30:39.463Z,123.40
2018-11-29T08:31:43.166Z,140.25
2018-11-29T08:32:46.741Z,143.60
2018-11-29T08:33:50.336Z,131.63
2018-11-29T08:34:53.913Z,145.00
2018-11-29T08:35:57.518Z,139.72
2018-11-29T08:37:01.113Z,136.55
2018-11-29T08:38:05.207Z,147.57
2018-11-29T08:39:09.709Z,141.22
2018-11-29T08:40:15.613Z,131.97
2018-11-29T08:41:19.225Z,131.72
2018-11-29T08:42:22.813Z,123.85
2018-11-29T08:43:26.901Z,103.10
2018-11-29T08:44:30.007Z,131.52
2018-11-29T08:45:33.618Z,120.25
2018-11-29T08:46:37.313Z,133.50
2018-11-29T08:47:40.902Z,134.03
2018-11-29T08:48:44.457Z,166.43
2018-11-29T08:49:48.038Z,123.10
2018-11-29T08:50:51.609Z,137.35
2018-11-29T08:51:55.205Z,132.82
2018-11-29T08:52:58.790Z,112.28
2018-11-29T08:54:02.380Z,123.30
2018-11-29T08:55:08.068Z,118.47
2018-11-29T08:56:11.657Z,118.37
2018-11-29T08:57:15.675Z,110.80
2018-11-29T08:58:18.854Z,104.80
2018-11-29T08:59:22.448Z,97.97
2018-11-29T09:00:26.046Z,111.35
2018-11-29T09:01:29.632Z,128.95
2018-11-29T09:02:33.220Z,124.07
2018-11-29T09:03:36.804Z,114.97
2018-11-29T09:04:40.398Z,104.38
2018-11-29T09:05:43.977Z,102.60
2018-11-29T09:06:47.562Z,122.70
2018-11-29T09:07:51.157Z,118.95
2018-11-29T09:08:54.742Z,124.95
2018-11-29T09:09:58.329Z,117.05
2018-11-29T09:11:01.910Z,113.95
2018-11-29T09:12:05.653Z,133.43
2018-11-29T09:13:09.249Z,125.00
2018-11-29T09:14:12.846Z,119.50
2018-11-29T09:15:17.013Z,117.47
2018-11-29T09:16:20.586Z,120.22
2018-11-29T09:17:24.182Z,113.17
2018-11-29T09:18:27.770Z,111.00
2018-11-29T09:19:31.482Z,101.95
2018-11-29T09:20:35.071Z,114.45
2018-11-29T09:21:38.639Z,109.87
2018-11-29T09:22:42.261Z,113.08
2018-11-29T09:23:45.866Z,134.45
2018-11-29T09:24:49.449Z,106.65
2018-11-29T09:25:53.532Z,89.80
2018-11-29T09:26:57.122Z,104.87
2018-11-29T09:28:00.713Z,100.40
2018-11-29T09:29:04.325Z,100.05
2018-11-29T09:30:13.010Z,92.57
2018-11-29T09:31:16.594Z,104.65
2018-11-29T09:32:26.813Z,96.00
2018-11-29T09:33:30.409Z,96.05
2018-11-29T09:34:34.033Z,113.15
2018-11-29T09:35:37.585Z,102.75
2018-11-29T09:36:41.264Z,113.60
2018-11-29T09:37:44.804Z,94.28
2018-11-29T09:38:48.395Z,98.37
2018-11-29T09:39:51.977Z,101.70
2018-11-29T09:40:55.554Z,89.70
2018-11-29T09:41:59.137Z,96.27
2018-11-29T09:43:02.756Z,96.70
2018-11-29T09:44:06.326Z,92.37
2018-11-29T09:45:13.200Z,84.17
2018-11-29T09:46:16.787Z,92.03
2018-11-29T09:47:20.364Z,93.45
2018-11-29T09:48:23.985Z,94.83
2018-11-29T09:49:27.557Z,97.27
2018-11-29T09:50:31.146Z,96.32
2018-11-29T09:51:34.725Z,95.28
2018-11-29T09:52:39.046Z,98.67
2018-11-29T09:53:42.650Z,103.57
2018-11-29T09:54:46.228Z,84.93
2018-11-29T09:55:49.809Z,97.30
2018-11-29T09:56:53.420Z,108.37
2018-11-29T09:57:56.981Z,90.73
2018-11-29T09:59:00.566Z,93.63
2018-11-29T10:00:06.640Z,86.08
2018-11-29T10:01:10.221Z,89.83
2018-11-29T10:02:13.793Z,89.90
2018-11-29T10:03:17.565Z,94.92
2018-11-29T10:04:21.220Z,94.70
2018-11-29T10:05:24.777Z,101.30
2018-11-29T10:06:28.356Z,106.07
2018-11-29T10:07:31.946Z,88.00
2018-11-29T10:08:35.530Z,94.42
2018-11-29T10:09:39.118Z,97.17
2018-11-29T10:10:42.735Z,117.10
2018-11-29T10:11:46.333Z,110.15
2018-11-29T10:12:49.942Z,111.67
2018-11-29T10:13:53.526Z,103.67
2018-11-29T10:14:57.101Z,91.80
2018-11-29T10:16:00.694Z,104.63
2018-11-29T10:17:04.277Z,108.15
2018-11-29T10:18:08.797Z,126.47
2018-11-29T10:19:12.413Z,117.30
2018-11-29T10:20:16.009Z,98.10
2018-11-29T10:21:19.605Z,101.10
2018-11-29T10:22:23.191Z,108.27
2018-11-29T10:23:26.795Z,102.47
2018-11-29T10:24:30.397Z,117.97
2018-11-29T10:25:34.051Z,112.42
2018-11-29T10:26:37.641Z,121.33
2018-11-29T10:27:42.562Z,109.90
2018-11-29T10:28:46.155Z,122.20
2018-11-29T10:29:49.749Z,109.53
2018-11-29T10:30:56.822Z,94.47
2018-11-29T10:32:00.508Z,77.93
2018-11-29T10:33:04.086Z,98.95
2018-11-29T10:34:07.699Z,105.63
2018-11-29T10:35:11.285Z,92.80
2018-11-29T10:36:14.881Z,103.57
2018-11-29T10:37:18.473Z,89.50
2018-11-29T10:38:22.063Z,81.67
2018-11-29T10:39:25.665Z,94.53
2018-11-29T10:40:29.335Z,80.90
2018-11-29T10:41:32.945Z,88.60
2018-11-29T10:42:36.617Z,94.90
2018-11-29T10:43:40.173Z,86.40
2018-11-29T10:44:43.773Z,85.23
2018-11-29T10:45:47.369Z,82.90
2018-11-29T10:46:50.953Z,87.97
2018-11-29T10:47:55.277Z,101.33
2018-11-29T10:48:58.871Z,94.33
2018-11-29T10:50:02.473Z,87.43
2018-11-29T10:51:06.411Z,80.90
2018-11-29T10:52:10.002Z,93.60
2018-11-29T10:53:13.598Z,112.10
2018-11-29T10:54:17.186Z,100.40
2018-11-29T10:55:20.793Z,92.07
2018-11-29T10:56:24.401Z,86.07
2018-11-29T10:57:28.114Z,93.50
2018-11-29T10:58:31.698Z,91.23
2018-11-29T10:59:35.297Z,76.97
2018-11-29T11:00:44.503Z,92.17
2018-11-29T11:01:53.469Z,92.93
2018-11-29T11:03:07.523Z,97.30
2018-11-29T11:04:11.116Z,92.40
2018-11-29T11:05:14.721Z,83.60
2018-11-29T11:06:18.338Z,85.87
2018-11-29T11:07:21.927Z,97.20
2018-11-29T11:08:25.485Z,82.37
2018-11-29T11:09:29.066Z,97.63
2018-11-29T11:10:32.668Z,95.63
2018-11-29T11:11:36.288Z,93.90
2018-11-29T11:12:39.853Z,86.82
2018-11-29T11:13:43.456Z,79.53
2018-11-29T11:14:47.049Z,98.37
2018-11-29T11:15:50.641Z,93.00
2018-11-29T11:16:54.343Z,98.52
2018-11-29T11:17:57.903Z,94.60
2018-11-29T11:19:01.526Z,100.80
2018-11-29T11:20:05.253Z,105.27
2018-11-29T11:21:08.849Z,94.03
2018-11-29T11:22:12.451Z,94.37
2018-11-29T11:23:16.030Z,99.60
2018-11-29T11:24:19.624Z,103.50
2018-11-29T11:25:23.209Z,74.00
2018-11-29T11:26:26.806Z,77.87
2018-11-29T11:27:30.393Z,77.77
2018-11-29T11:28:33.977Z,84.43
2018-11-29T11:29:37.561Z,85.90
2018-11-29T11:30:42.653Z,82.93
2018-11-29T11:31:46.252Z,78.03
2018-11-29T11:32:50.949Z,89.33
2018-11-29T11:33:54.541Z,73.10
2018-11-29T11:34:58.135Z,74.07
2018-11-29T11:36:01.730Z,77.47
2018-11-29T11:37:05.333Z,74.07
2018-11-29T11:38:08.925Z,74.53
2018-11-29T11:39:12.518Z,75.20
2018-11-29T11:40:16.663Z,75.33
2018-11-29T11:41:20.253Z,70.23
2018-11-29T11:42:23.862Z,79.60
2018-11-29T11:43:27.478Z,81.63
2018-11-29T11:44:31.173Z,77.00
2018-11-29T11:45:34.866Z,89.87
2018-11-29T11:46:38.429Z,78.53
2018-11-29T11:47:42.021Z,84.13
2018-11-29T11:48:45.596Z,87.60
2018-11-29T11:49:49.176Z,94.80
2018-11-29T11:50:52.758Z,86.13
2018-11-29T11:51:56.361Z,82.23
2018-11-29T11:52:59.969Z,91.63
2018-11-29T11:54:03.553Z,76.13
2018-11-29T11:55:07.687Z,92.03
2018-11-29T11:56:11.293Z,84.70
2018-11-29T11:57:14.876Z,85.33
2018-11-29T11:58:18.567Z,90.03
2018-11-29T11:59:22.155Z,95.90
2018-11-29T12:00:26.975Z,99.92
2018-11-29T12:01:30.563Z,104.60
2018-11-29T12:02:34.164Z,119.37
2018-11-29T12:03:37.762Z,120.37
2018-11-29T12:04:41.354Z,118.87
2018-11-29T12:05:45.029Z,102.63
2018-11-29T12:06:48.721Z,115.17
2018-11-29T12:07:52.279Z,97.43
2018-11-29T12:08:55.863Z,107.73
2018-11-29T12:09:59.445Z,99.83
2018-11-29T12:11:03.039Z,107.27
2018-11-29T12:12:06.629Z,104.90
2018-11-29T12:13:10.206Z,102.23
2018-11-29T12:14:13.821Z,116.00
2018-11-29T12:15:17.453Z,98.27
2018-11-29T12:16:20.997Z,106.27
2018-11-29T12:17:24.602Z,127.90
2018-11-29T12:18:28.181Z,119.77
2018-11-29T12:19:31.789Z,123.60
2018-11-29T12:20:35.385Z,104.43
2018-11-29T12:21:38.964Z,104.63
2018-11-29T12:22:42.549Z,105.73
2018-11-29T12:23:46.133Z,99.80
2018-11-29T12:24:49.757Z,117.60
2018-11-29T12:25:53.347Z,109.30
2018-11-29T12:26:56.881Z,92.93
2018-11-29T12:28:00.473Z,124.63
2018-11-29T12:29:04.040Z,125.47
2018-11-29T12:30:14.352Z,112.60
2018-11-29T12:31:17.954Z,120.43
2018-11-29T12:32:21.648Z,134.13
2018-11-29T12:33:25.205Z,110.73
2018-11-29T12:34:28.801Z,120.20
2018-11-29T12:35:32.509Z,122.50
2018-11-29T12:36:36.089Z,128.07
2018-11-29T12:37:39.673Z,101.40
2018-11-29T12:38:43.252Z,103.87
2018-11-29T12:39:46.835Z,103.67
2018-11-29T12:40:50.773Z,106.67
2018-11-29T12:41:54.345Z,120.37
2018-11-29T12:42:57.960Z,107.00
2018-11-29T12:44:01.526Z,100.47
2018-11-29T12:45:07.873Z,105.17
2018-11-29T12:46:11.457Z,120.17
2018-11-29T12:47:15.087Z,122.47
2018-11-29T12:48:18.679Z,99.83
2018-11-29T12:49:22.313Z,127.43
2018-11-29T12:50:26.564Z,126.57
2018-11-29T12:51:30.165Z,111.73
2018-11-29T12:52:33.717Z,99.20
2018-11-29T12:53:37.339Z,113.57
2018-11-29T12:54:40.917Z,105.00
2018-11-29T12:55:45.236Z,101.90
2018-11-29T12:56:48.913Z,113.70
2018-11-29T12:58:04.390Z,113.33
2018-11-29T12:58:56.009Z,103.00
2018-11-29T12:59:59.594Z,112.10
2018-11-29T13:01:03.169Z,105.23
2018-11-29T13:02:07.001Z,110.50
2018-11-29T13:03:11.185Z,121.00
2018-11-29T13:04:14.774Z,118.47
2018-11-29T13:05:18.359Z,108.40
2018-11-29T13:06:21.938Z,112.13
2018-11-29T13:07:25.522Z,127.93
2018-11-29T13:08:29.113Z,135.03
2018-11-29T13:09:32.736Z,110.90
2018-11-29T13:10:36.290Z,97.20
2018-11-29T13:11:39.879Z,108.30
2018-11-29T13:12:43.454Z,104.77
2018-11-29T13:13:47.021Z,100.37
2018-11-29T13:14:53.706Z,100.73
2018-11-29T13:15:57.352Z,87.97
2018-11-29T13:17:00.942Z,97.67
2018-11-29T13:18:06.167Z,100.57
2018-11-29T13:19:09.742Z,110.27
2018-11-29T13:20:15.289Z,94.37
2018-11-29T13:21:18.877Z,90.60
2018-11-29T13:22:22.453Z,92.17
2018-11-29T13:23:26.029Z,95.50
2018-11-29T13:24:29.645Z,101.57
2018-11-29T13:25:33.249Z,90.40
2018-11-29T13:26:36.801Z,100.23
2018-11-29T13:27:41.222Z,103.80
2018-11-29T13:28:43.961Z,88.13
2018-11-29T13:29:47.578Z,91.43
2018-11-29T13:30:51.184Z,92.53
2018-11-29T13:31:54.705Z,95.50